createdAt,value
2023-01-18T00:00:52.597Z,53.66
2023-01-18T00:01:52.304Z,54.95
2023-01-18T00:02:52.270Z,55.59
2023-01-18T00:03:52.299Z,55.11
2023-01-18T00:04:52.286Z,54.79
2023-01-18T00:05:52.279Z,55.11
2023-01-18T00:06:52.310Z,55.11
2023-01-18T00:07:52.228Z,54.79
2023-01-18T00:08:52.227Z,53.82
2023-01-18T00:09:52.232Z,54.46
2023-01-18T00:10:52.223Z,54.79
2023-01-18T00:11:52.213Z,54.62
2023-01-18T00:12:52.270Z,54.62
2023-01-18T00:13:52.201Z,54.30
2023-01-18T00:14:52.199Z,54.62
2023-01-18T00:15:52.188Z,54.46
2023-01-18T00:16:52.203Z,54.95
2023-01-18T00:17:52.154Z,55.27
2023-01-18T00:18:52.204Z,55.11
2023-01-18T00:19:52.173Z,54.30
2023-01-18T00:20:52.142Z,55.11
2023-01-18T00:21:52.158Z,54.79
2023-01-18T00:22:52.154Z,54.62
2023-01-18T00:23:52.115Z,54.46
2023-01-18T00:24:52.169Z,54.14
2023-01-18T00:25:52.140Z,54.14
2023-01-18T00:26:52.121Z,54.46
2023-01-18T00:27:52.095Z,54.30
2023-01-18T00:28:52.108Z,54.95
2023-01-18T00:29:52.061Z,55.43
2023-01-18T00:30:52.099Z,55.27
2023-01-18T00:31:52.167Z,54.95
2023-01-18T00:32:52.087Z,54.46
2023-01-18T00:33:52.058Z,54.30
2023-01-18T00:34:52.055Z,53.98
2023-01-18T00:35:52.047Z,54.14
2023-01-18T00:36:52.113Z,55.11
2023-01-18T00:37:52.025Z,55.59
2023-01-18T00:38:52.036Z,54.95
2023-01-18T00:39:52.009Z,55.59
2023-01-18T00:40:51.999Z,55.59
2023-01-18T00:41:51.979Z,55.11
2023-01-18T00:42:52.062Z,55.11
2023-01-18T00:43:51.988Z,54.62
2023-01-18T00:44:51.969Z,54.95
2023-01-18T00:45:51.986Z,55.27
2023-01-18T00:46:51.980Z,55.27
2023-01-18T00:47:51.946Z,54.46
2023-01-18T00:48:52.092Z,54.46
2023-01-18T00:49:51.939Z,54.30
2023-01-18T00:50:51.964Z,54.46
2023-01-18T00:51:51.942Z,54.14
2023-01-18T00:52:51.937Z,54.62
2023-01-18T00:53:51.923Z,55.11
2023-01-18T00:54:51.961Z,54.95
2023-01-18T00:55:51.924Z,54.30
2023-01-18T00:56:51.903Z,54.46
2023-01-18T00:57:51.895Z,54.95
2023-01-18T00:58:51.865Z,54.62
2023-01-18T00:59:51.882Z,54.95
2023-01-18T01:00:51.983Z,54.30
2023-01-18T01:01:51.981Z,54.79
2023-01-18T01:02:51.906Z,55.11
2023-01-18T01:03:51.859Z,54.62
2023-01-18T01:04:51.839Z,54.95
2023-01-18T01:05:51.841Z,54.30
2023-01-18T01:06:52.418Z,55.11
2023-01-18T01:07:51.829Z,54.79
2023-01-18T01:08:51.818Z,55.11
2023-01-18T01:09:51.840Z,55.27
2023-01-18T01:10:51.794Z,55.11
2023-01-18T01:11:51.820Z,55.11
2023-01-18T01:12:51.850Z,54.95
2023-01-18T01:13:51.796Z,54.30
2023-01-18T01:14:51.796Z,54.46
2023-01-18T01:15:51.769Z,55.75
2023-01-18T01:16:51.814Z,54.79
2023-01-18T01:17:51.743Z,54.46
2023-01-18T01:18:51.788Z,54.46
2023-01-18T01:19:51.742Z,54.95
2023-01-18T01:20:51.728Z,54.46
2023-01-18T01:21:51.730Z,54.62
2023-01-18T01:22:51.707Z,55.11
2023-01-18T01:23:51.710Z,54.46
2023-01-18T01:24:51.765Z,53.82
2023-01-18T01:25:51.730Z,54.79
2023-01-18T01:26:51.694Z,54.30
2023-01-18T01:27:51.685Z,54.46
2023-01-18T01:28:51.695Z,54.14
2023-01-18T01:29:51.681Z,53.98
2023-01-18T01:30:51.754Z,54.95
2023-01-18T01:31:51.684Z,54.95
2023-01-18T01:32:51.649Z,54.46
2023-01-18T01:33:51.673Z,54.95
2023-01-18T01:34:51.646Z,54.79
2023-01-18T01:35:51.673Z,54.46
2023-01-18T01:36:51.699Z,54.79
2023-01-18T01:37:51.594Z,54.62
2023-01-18T01:38:51.637Z,54.46
2023-01-18T01:39:51.630Z,54.62
2023-01-18T01:40:51.633Z,54.79
2023-01-18T01:41:51.588Z,54.95
2023-01-18T01:42:51.670Z,54.95
2023-01-18T01:43:51.567Z,54.62
2023-01-18T01:44:51.557Z,54.14
2023-01-18T01:45:51.584Z,53.17
2023-01-18T01:46:51.551Z,54.14
2023-01-18T01:47:51.560Z,54.46
2023-01-18T01:48:51.597Z,55.27
2023-01-18T01:49:51.549Z,54.95
2023-01-18T01:50:51.525Z,54.79
2023-01-18T01:51:51.510Z,54.62
2023-01-18T01:52:51.513Z,54.30
2023-01-18T01:53:51.506Z,54.30
2023-01-18T01:54:51.599Z,55.11
2023-01-18T01:55:51.492Z,55.11
2023-01-18T01:56:51.481Z,55.59
2023-01-18T01:57:51.516Z,54.62
2023-01-18T01:58:51.473Z,54.30
2023-01-18T01:59:51.486Z,54.30
2023-01-18T02:00:51.620Z,54.62
2023-01-18T02:01:51.574Z,54.95
2023-01-18T02:02:51.478Z,53.50
2023-01-18T02:03:51.422Z,54.95
2023-01-18T02:04:51.429Z,54.95
2023-01-18T02:05:51.419Z,55.11
2023-01-18T02:06:51.475Z,54.62
2023-01-18T02:07:51.421Z,54.30
2023-01-18T02:08:51.431Z,54.95
2023-01-18T02:09:51.433Z,53.33
2023-01-18T02:10:51.369Z,53.82
2023-01-18T02:11:51.422Z,54.79
2023-01-18T02:12:51.470Z,54.79
2023-01-18T02:13:51.350Z,55.59
2023-01-18T02:14:51.378Z,54.95
2023-01-18T02:15:51.353Z,55.11
2023-01-18T02:16:51.383Z,54.95
2023-01-18T02:17:51.333Z,54.95
2023-01-18T02:18:51.385Z,54.95
2023-01-18T02:19:51.337Z,54.95
2023-01-18T02:20:51.313Z,54.62
2023-01-18T02:21:51.320Z,55.11
2023-01-18T02:22:51.311Z,55.43
2023-01-18T02:23:51.297Z,55.27
2023-01-18T02:24:51.339Z,55.11
2023-01-18T02:25:51.307Z,54.62
2023-01-18T02:26:51.287Z,54.79
2023-01-18T02:27:51.299Z,54.62
2023-01-18T02:28:51.253Z,53.98
2023-01-18T02:29:51.407Z,54.62
2023-01-18T02:30:51.322Z,54.79
2023-01-18T02:31:51.272Z,54.62
2023-01-18T02:32:51.208Z,54.46
2023-01-18T02:33:51.237Z,54.62
2023-01-18T02:34:51.229Z,54.62
2023-01-18T02:35:51.226Z,55.11
2023-01-18T02:36:51.261Z,53.66
2023-01-18T02:37:51.253Z,53.98
2023-01-18T02:38:51.204Z,54.95
2023-01-18T02:39:51.292Z,54.95
2023-01-18T02:40:51.199Z,54.79
2023-01-18T02:41:51.202Z,54.30
2023-01-18T02:42:51.248Z,54.46
2023-01-18T02:43:51.171Z,54.14
2023-01-18T02:44:51.170Z,54.79
2023-01-18T02:45:51.181Z,55.43
2023-01-18T02:46:51.136Z,55.11
2023-01-18T02:47:51.169Z,55.27
2023-01-18T02:48:51.177Z,54.30
2023-01-18T02:49:51.158Z,55.27
2023-01-18T02:50:51.098Z,54.62
2023-01-18T02:51:51.119Z,54.95
2023-01-18T02:52:51.112Z,54.79
2023-01-18T02:53:51.108Z,54.79
2023-01-18T02:54:51.150Z,54.79
2023-01-18T02:55:51.085Z,55.43
2023-01-18T02:56:51.080Z,54.79
2023-01-18T02:57:51.070Z,54.62
2023-01-18T02:58:51.064Z,54.95
2023-01-18T02:59:51.073Z,55.11
2023-01-18T03:00:51.093Z,54.46
2023-01-18T03:01:51.060Z,53.82
2023-01-18T03:02:51.054Z,55.11
2023-01-18T03:03:51.021Z,54.62
2023-01-18T03:04:51.036Z,54.79
2023-01-18T03:05:51.013Z,54.79
2023-01-18T03:06:51.068Z,54.62
2023-01-18T03:07:51.037Z,55.11
2023-01-18T03:08:51.013Z,55.75
2023-01-18T03:09:50.982Z,54.79
2023-01-18T03:10:50.981Z,55.11
2023-01-18T03:11:50.963Z,54.62
2023-01-18T03:12:51.033Z,54.14
2023-01-18T03:13:50.950Z,54.95
2023-01-18T03:14:50.979Z,54.46
2023-01-18T03:15:50.944Z,53.98
2023-01-18T03:16:50.920Z,54.46
2023-01-18T03:17:50.949Z,55.11
2023-01-18T03:18:51.219Z,55.27
2023-01-18T03:19:50.937Z,55.59
2023-01-18T03:20:50.913Z,54.79
2023-01-18T03:21:50.889Z,54.62
2023-01-18T03:22:50.887Z,54.46
2023-01-18T03:23:50.899Z,55.11
2023-01-18T03:24:50.947Z,55.27
2023-01-18T03:25:50.881Z,55.27
2023-01-18T03:26:50.917Z,55.11
2023-01-18T03:27:50.847Z,55.59
2023-01-18T03:28:50.858Z,55.11
2023-01-18T03:29:50.864Z,54.79
2023-01-18T03:30:50.933Z,54.62
2023-01-18T03:31:50.828Z,54.62
2023-01-18T03:32:50.843Z,53.50
2023-01-18T03:33:50.846Z,53.50
2023-01-18T03:34:50.829Z,54.46
2023-01-18T03:35:50.797Z,55.27
2023-01-18T03:36:50.826Z,55.11
2023-01-18T03:37:50.825Z,55.11
2023-01-18T03:38:50.771Z,55.27
2023-01-18T03:39:50.790Z,55.11
2023-01-18T03:40:50.798Z,55.11
2023-01-18T03:41:50.785Z,55.11
2023-01-18T03:42:50.836Z,54.79
2023-01-18T03:43:50.747Z,54.79
2023-01-18T03:44:50.779Z,54.79
2023-01-18T03:45:50.744Z,54.46
2023-01-18T03:46:50.744Z,55.11
2023-01-18T03:47:50.744Z,54.79
2023-01-18T03:48:50.744Z,54.62
2023-01-18T03:49:50.722Z,55.59
2023-01-18T03:50:50.697Z,55.11
2023-01-18T03:51:50.690Z,54.62
2023-01-18T03:52:50.678Z,54.14
2023-01-18T03:53:50.684Z,55.11
2023-01-18T03:54:50.741Z,55.43
2023-01-18T03:55:50.682Z,54.79
2023-01-18T03:56:50.678Z,53.17
2023-01-18T03:57:50.694Z,55.11
2023-01-18T03:58:50.634Z,54.95
2023-01-18T03:59:50.628Z,54.62
2023-01-18T04:00:50.726Z,54.95
2023-01-18T04:01:50.745Z,53.82
2023-01-18T04:02:50.642Z,54.79
2023-01-18T04:03:50.602Z,54.30
2023-01-18T04:04:50.630Z,54.95
2023-01-18T04:05:50.620Z,53.33
2023-01-18T04:06:50.657Z,55.43
2023-01-18T04:07:50.590Z,54.79
2023-01-18T04:08:50.577Z,54.46
2023-01-18T04:09:50.590Z,54.79
2023-01-18T04:10:50.578Z,55.11
2023-01-18T04:11:50.585Z,55.75
2023-01-18T04:12:50.634Z,55.43
2023-01-18T04:13:50.566Z,55.27
2023-01-18T04:14:50.524Z,55.43
2023-01-18T04:15:50.557Z,54.62
2023-01-18T04:16:50.519Z,55.11
2023-01-18T04:17:50.538Z,54.95
2023-01-18T04:18:50.803Z,55.27
2023-01-18T04:19:50.541Z,54.14
2023-01-18T04:20:50.519Z,54.95
2023-01-18T04:21:50.509Z,55.43
2023-01-18T04:22:50.508Z,55.91
2023-01-18T04:23:50.483Z,55.11
2023-01-18T04:24:50.556Z,54.95
2023-01-18T04:25:50.486Z,55.11
2023-01-18T04:26:50.487Z,55.27
2023-01-18T04:27:50.466Z,53.98
2023-01-18T04:28:50.468Z,55.11
2023-01-18T04:29:50.446Z,54.95
2023-01-18T04:30:50.517Z,55.75
2023-01-18T04:31:50.450Z,55.59
2023-01-18T04:32:50.437Z,55.27
2023-01-18T04:33:50.419Z,55.11
2023-01-18T04:34:50.408Z,54.14
2023-01-18T04:35:50.420Z,54.95
2023-01-18T04:36:50.452Z,55.11
2023-01-18T04:37:50.393Z,54.30
2023-01-18T04:38:50.387Z,54.46
2023-01-18T04:39:50.378Z,54.95
2023-01-18T04:40:50.390Z,55.11
2023-01-18T04:41:50.377Z,54.62
2023-01-18T04:42:50.405Z,55.27
2023-01-18T04:43:50.361Z,55.59
2023-01-18T04:44:50.401Z,55.27
2023-01-18T04:45:50.354Z,55.43
2023-01-18T04:46:50.395Z,55.75
2023-01-18T04:47:50.353Z,55.75
2023-01-18T04:48:50.384Z,55.91
2023-01-18T04:49:50.333Z,55.11
2023-01-18T04:50:50.317Z,55.11
2023-01-18T04:51:50.294Z,55.59
2023-01-18T04:52:50.333Z,55.75
2023-01-18T04:53:50.307Z,55.11
2023-01-18T04:54:50.359Z,55.11
2023-01-18T04:55:50.332Z,55.11
2023-01-18T04:56:50.280Z,55.27
2023-01-18T04:57:50.289Z,55.43
2023-01-18T04:58:50.265Z,54.79
2023-01-18T04:59:50.267Z,55.11
2023-01-18T05:00:50.385Z,55.91
2023-01-18T05:01:50.239Z,56.56
2023-01-18T05:02:50.242Z,53.50
2023-01-18T05:03:50.261Z,55.59
2023-01-18T05:04:50.243Z,54.79
2023-01-18T05:05:50.215Z,55.27
2023-01-18T05:06:50.258Z,56.24
2023-01-18T05:07:50.216Z,55.43
2023-01-18T05:08:50.201Z,55.27
2023-01-18T05:09:50.199Z,54.95
2023-01-18T05:10:50.200Z,54.62
2023-01-18T05:11:50.223Z,54.95
2023-01-18T05:12:50.249Z,55.27
2023-01-18T05:13:50.194Z,55.11
2023-01-18T05:14:50.189Z,56.56
2023-01-18T05:15:50.161Z,57.04
2023-01-18T05:16:50.146Z,56.24
2023-01-18T05:17:50.172Z,56.07
2023-01-18T05:18:50.181Z,54.79
2023-01-18T05:19:50.150Z,55.75
2023-01-18T05:20:50.142Z,55.59
2023-01-18T05:21:50.128Z,55.59
2023-01-18T05:22:50.103Z,56.07
2023-01-18T05:23:50.097Z,55.11
2023-01-18T05:24:50.640Z,56.07
2023-01-18T05:25:50.090Z,56.07
2023-01-18T05:26:50.090Z,56.07
2023-01-18T05:27:50.087Z,55.91
2023-01-18T05:28:50.078Z,56.07
2023-01-18T05:29:50.193Z,55.75
2023-01-18T05:30:50.132Z,56.07
2023-01-18T05:31:55.125Z,55.27
2023-01-18T05:32:50.078Z,56.07
2023-01-18T05:33:50.032Z,55.59
2023-01-18T05:34:50.040Z,55.75
2023-01-18T05:35:50.026Z,56.40
2023-01-18T05:36:50.088Z,55.91
2023-01-18T05:37:50.031Z,55.43
2023-01-18T05:38:50.035Z,55.27
2023-01-18T05:39:49.988Z,54.79
2023-01-18T05:40:50.003Z,55.11
2023-01-18T05:42:03.854Z,55.11
2023-01-18T05:42:50.041Z,55.27
2023-01-18T05:43:50.015Z,55.91
2023-01-18T05:44:49.959Z,55.59
2023-01-18T05:45:50.016Z,56.07
2023-01-18T05:46:49.973Z,58.17
2023-01-18T05:47:49.932Z,56.56
2023-01-18T05:48:49.984Z,55.11
2023-01-18T05:49:49.940Z,55.43
2023-01-18T05:50:49.950Z,56.40
2023-01-18T05:51:49.910Z,57.36
2023-01-18T05:52:49.926Z,57.85
2023-01-18T05:53:49.896Z,62.36
2023-01-18T05:54:49.959Z,57.04
2023-01-18T05:55:49.901Z,56.56
2023-01-18T05:56:49.892Z,56.40
2023-01-18T05:57:49.902Z,55.75
2023-01-18T05:58:49.861Z,55.59
2023-01-18T05:59:49.862Z,55.75
2023-01-18T06:00:49.961Z,56.24
2023-01-18T06:01:49.941Z,57.36
2023-01-18T06:02:49.877Z,55.11
2023-01-18T06:03:49.861Z,55.91
2023-01-18T06:04:49.862Z,55.59
2023-01-18T06:05:49.837Z,56.07
2023-01-18T06:06:49.831Z,55.91
2023-01-18T06:07:49.788Z,56.24
2023-01-18T06:08:49.788Z,55.11
2023-01-18T06:09:49.791Z,56.72
2023-01-18T06:10:49.764Z,55.91
2023-01-18T06:11:49.784Z,55.75
2023-01-18T06:12:49.782Z,58.01
2023-01-18T06:13:49.766Z,57.52
2023-01-18T06:14:49.747Z,55.91
2023-01-18T06:15:49.862Z,56.07
2023-01-18T06:16:49.727Z,55.91
2023-01-18T06:17:49.722Z,55.91
2023-01-18T06:18:49.782Z,54.46
2023-01-18T06:19:49.716Z,56.56
2023-01-18T06:20:49.717Z,56.72
2023-01-18T06:21:49.689Z,56.40
2023-01-18T06:22:49.708Z,55.91
2023-01-18T06:23:49.715Z,55.91
2023-01-18T06:24:49.773Z,56.72
2023-01-18T06:25:49.682Z,57.04
2023-01-18T06:26:49.672Z,57.36
2023-01-18T06:27:49.655Z,57.85
2023-01-18T06:28:49.654Z,56.24
2023-01-18T06:29:49.648Z,59.14
2023-01-18T06:30:50.152Z,56.56
2023-01-18T06:31:49.690Z,57.04
2023-01-18T06:32:49.625Z,56.72
2023-01-18T06:33:49.618Z,57.36
2023-01-18T06:34:49.616Z,57.85
2023-01-18T06:35:49.615Z,56.88
2023-01-18T06:36:49.629Z,56.24
2023-01-18T06:37:49.579Z,56.24
2023-01-18T06:38:49.613Z,56.56
2023-01-18T06:39:49.584Z,57.04
2023-01-18T06:40:49.585Z,57.52
2023-01-18T06:41:49.555Z,57.04
2023-01-18T06:42:49.620Z,56.72
2023-01-18T06:43:49.563Z,57.04
2023-01-18T06:44:49.546Z,58.01
2023-01-18T06:45:52.311Z,57.52
2023-01-18T06:46:49.565Z,57.20
2023-01-18T06:47:49.570Z,56.56
2023-01-18T06:48:49.608Z,57.85
2023-01-18T06:49:49.524Z,59.14
2023-01-18T06:50:49.508Z,58.01
2023-01-18T06:51:49.507Z,56.56
2023-01-18T06:52:49.509Z,58.81
2023-01-18T06:53:49.493Z,57.04
2023-01-18T06:54:49.547Z,56.72
2023-01-18T06:55:49.492Z,59.94
2023-01-18T06:56:49.495Z,57.52
2023-01-18T06:57:49.474Z,57.04
2023-01-18T06:58:49.471Z,56.88
2023-01-18T06:59:49.475Z,57.04
2023-01-18T07:00:49.663Z,56.72
2023-01-18T07:01:49.543Z,58.01
2023-01-18T07:02:49.452Z,56.40
2023-01-18T07:03:49.470Z,56.72
2023-01-18T07:04:49.432Z,55.11
2023-01-18T07:05:49.422Z,56.40
2023-01-18T07:06:49.476Z,55.75
2023-01-18T07:07:49.422Z,57.36
2023-01-18T07:08:49.408Z,57.04
2023-01-18T07:09:49.382Z,57.20
2023-01-18T07:10:49.399Z,58.65
2023-01-18T07:11:49.375Z,56.56
2023-01-18T07:12:49.433Z,58.33
2023-01-18T07:13:49.366Z,55.75
2023-01-18T07:14:49.364Z,59.30
2023-01-18T07:15:49.361Z,56.88
2023-01-18T07:16:49.491Z,56.72
2023-01-18T07:17:49.344Z,56.24
2023-01-18T07:18:49.381Z,56.07
2023-01-18T07:19:49.312Z,59.94
2023-01-18T07:20:49.320Z,58.01
2023-01-18T07:21:49.323Z,58.49
2023-01-18T07:22:49.309Z,58.17
2023-01-18T07:23:49.300Z,58.81
2023-01-18T07:24:49.359Z,56.88
2023-01-18T07:25:49.287Z,57.04
2023-01-18T07:26:49.277Z,58.33
2023-01-18T07:27:49.308Z,57.20
2023-01-18T07:28:49.259Z,56.88
2023-01-18T07:29:49.597Z,58.17
2023-01-18T07:30:49.711Z,57.04
2023-01-18T07:31:49.306Z,56.72
2023-01-18T07:32:49.231Z,55.75
2023-01-18T07:33:49.244Z,56.24
2023-01-18T07:34:49.220Z,57.20
2023-01-18T07:35:49.243Z,57.36
2023-01-18T07:36:49.279Z,58.49
2023-01-18T07:37:49.249Z,57.04
2023-01-18T07:38:49.208Z,57.04
2023-01-18T07:39:49.192Z,57.04
2023-01-18T07:40:49.203Z,59.62
2023-01-18T07:41:49.190Z,60.10
2023-01-18T07:42:49.231Z,58.81
2023-01-18T07:43:49.167Z,56.40
2023-01-18T07:44:49.157Z,57.69
2023-01-18T07:45:49.162Z,58.97
2023-01-18T07:46:49.152Z,58.65
2023-01-18T07:47:49.134Z,59.46
2023-01-18T07:48:49.177Z,58.81
2023-01-18T07:49:49.117Z,59.14
2023-01-18T07:50:49.135Z,59.62
2023-01-18T07:51:49.108Z,58.97
2023-01-18T07:52:49.112Z,59.62
2023-01-18T07:53:49.086Z,57.52
2023-01-18T07:54:49.188Z,58.97
2023-01-18T07:55:49.082Z,59.30
2023-01-18T07:56:49.065Z,61.23
2023-01-18T07:57:49.081Z,58.33
2023-01-18T07:58:49.040Z,57.20
2023-01-18T07:59:49.125Z,58.49
2023-01-18T08:00:49.120Z,61.07
2023-01-18T08:01:49.063Z,58.65
2023-01-18T08:02:49.067Z,58.17
2023-01-18T08:03:49.030Z,58.17
2023-01-18T08:04:49.021Z,56.56
2023-01-18T08:05:49.041Z,57.69
2023-01-18T08:06:49.072Z,57.52
2023-01-18T08:07:48.994Z,57.36
2023-01-18T08:08:48.998Z,58.65
2023-01-18T08:09:48.989Z,58.49
2023-01-18T08:10:49.012Z,56.24
2023-01-18T08:11:48.973Z,57.52
2023-01-18T08:12:49.002Z,58.65
2023-01-18T08:13:48.962Z,57.36
2023-01-18T08:14:48.939Z,59.30
2023-01-18T08:15:48.957Z,57.04
2023-01-18T08:16:48.942Z,57.04
2023-01-18T08:17:48.919Z,57.85
2023-01-18T08:18:48.999Z,57.52
2023-01-18T08:19:48.938Z,57.36
2023-01-18T08:20:48.906Z,56.88
2023-01-18T08:21:48.896Z,56.40
2023-01-18T08:22:48.893Z,55.27
2023-01-18T08:23:48.884Z,57.04
2023-01-18T08:24:48.924Z,58.01
2023-01-18T08:25:48.865Z,58.01
2023-01-18T08:26:48.861Z,56.56
2023-01-18T08:27:48.851Z,56.07
2023-01-18T08:28:48.887Z,55.59
2023-01-18T08:29:48.866Z,57.04
2023-01-18T08:30:48.944Z,56.72
2023-01-18T08:31:48.864Z,56.40
2023-01-18T08:32:48.809Z,58.65
2023-01-18T08:33:49.035Z,55.75
2023-01-18T08:34:48.798Z,54.62
2023-01-18T08:35:48.824Z,54.62
2023-01-18T08:36:49.389Z,57.04
2023-01-18T08:37:48.778Z,57.52
2023-01-18T08:38:48.792Z,56.24
2023-01-18T08:39:48.771Z,56.40
2023-01-18T08:40:48.756Z,56.07
2023-01-18T08:41:48.736Z,57.20
2023-01-18T08:42:48.807Z,57.04
2023-01-18T08:43:48.743Z,58.81
2023-01-18T08:44:48.730Z,58.49
2023-01-18T08:45:48.728Z,58.01
2023-01-18T08:46:48.776Z,57.04
2023-01-18T08:47:48.721Z,57.69
2023-01-18T08:48:48.772Z,57.52
2023-01-18T08:49:48.687Z,56.40
2023-01-18T08:50:51.508Z,57.04
2023-01-18T08:51:48.686Z,62.36
2023-01-18T08:52:48.695Z,56.07
2023-01-18T08:53:48.662Z,57.36
2023-01-18T08:54:48.724Z,58.33
2023-01-18T08:55:48.648Z,57.36
2023-01-18T08:56:48.639Z,56.40
2023-01-18T08:57:48.629Z,55.75
2023-01-18T08:58:48.720Z,55.59
2023-01-18T08:59:48.658Z,57.52
2023-01-18T09:00:48.673Z,56.40
2023-01-18T09:01:48.659Z,56.56
2023-01-18T09:02:48.662Z,57.69
2023-01-18T09:03:48.596Z,57.04
2023-01-18T09:04:48.600Z,57.36
2023-01-18T09:05:48.584Z,58.01
2023-01-18T09:06:48.638Z,57.04
2023-01-18T09:07:48.564Z,56.56
2023-01-18T09:08:48.545Z,57.52
2023-01-18T09:09:48.555Z,58.33
2023-01-18T09:10:48.595Z,56.72
2023-01-18T09:11:48.542Z,57.04
2023-01-18T09:12:48.607Z,57.20
2023-01-18T09:14:00.162Z,57.69
2023-01-18T09:14:49.542Z,58.17
2023-01-18T09:15:48.565Z,58.65
2023-01-18T09:16:48.525Z,57.69
2023-01-18T09:17:48.492Z,59.94
2023-01-18T09:18:48.561Z,58.65
2023-01-18T09:19:48.498Z,57.69
2023-01-18T09:20:48.473Z,56.40
2023-01-18T09:21:48.468Z,55.43
2023-01-18T09:22:48.507Z,55.43
2023-01-18T09:23:48.452Z,55.43
2023-01-18T09:24:48.502Z,57.36
2023-01-18T09:25:48.462Z,57.04
2023-01-18T09:26:48.460Z,56.88
2023-01-18T09:27:48.436Z,57.20
2023-01-18T09:28:48.424Z,58.97
2023-01-18T09:29:48.432Z,57.36
2023-01-18T09:30:48.444Z,57.04
2023-01-18T09:31:48.451Z,56.07
2023-01-18T09:32:48.388Z,58.17
2023-01-18T09:33:53.343Z,56.56
2023-01-18T09:34:49.371Z,56.24
2023-01-18T09:35:48.373Z,56.72
2023-01-18T09:36:48.414Z,57.04
2023-01-18T09:37:48.348Z,56.88
2023-01-18T09:38:48.345Z,56.88
2023-01-18T09:39:52.268Z,56.56
2023-01-18T09:40:48.324Z,55.43
2023-01-18T09:41:48.332Z,57.20
2023-01-18T09:42:48.680Z,58.33
2023-01-18T09:43:48.329Z,57.69
2023-01-18T09:44:48.318Z,57.36
2023-01-18T09:45:48.306Z,58.17
2023-01-18T09:46:48.323Z,57.36
2023-01-18T09:47:48.282Z,56.07
2023-01-18T09:48:48.322Z,58.81
2023-01-18T09:49:48.290Z,58.65
2023-01-18T09:50:48.270Z,56.40
2023-01-18T09:51:48.273Z,56.40
2023-01-18T09:52:48.248Z,55.59
2023-01-18T09:53:48.245Z,57.69
2023-01-18T09:54:48.305Z,56.88
2023-01-18T09:55:48.221Z,56.88
2023-01-18T09:56:48.241Z,58.49
2023-01-18T09:57:48.228Z,58.97
2023-01-18T09:58:48.213Z,56.40
2023-01-18T09:59:48.200Z,57.04
2023-01-18T10:00:48.306Z,55.11
2023-01-18T10:01:48.285Z,55.59
2023-01-18T10:02:48.211Z,58.97
2023-01-18T10:03:48.173Z,57.04
2023-01-18T10:04:48.158Z,55.75
2023-01-18T10:05:48.151Z,56.07
2023-01-18T10:06:48.210Z,56.72
2023-01-18T10:07:48.148Z,55.91
2023-01-18T10:08:48.169Z,56.72
2023-01-18T10:09:48.130Z,55.75
2023-01-18T10:10:48.135Z,54.46
2023-01-18T10:11:48.147Z,57.52
2023-01-18T10:12:48.161Z,56.40
2023-01-18T10:13:48.123Z,54.62
2023-01-18T10:14:48.108Z,55.75
2023-01-18T10:15:48.086Z,55.43
2023-01-18T10:16:48.109Z,55.43
2023-01-18T10:17:48.085Z,58.65
2023-01-18T10:18:48.176Z,56.72
2023-01-18T10:19:48.079Z,56.40
2023-01-18T10:20:48.066Z,55.91
2023-01-18T10:21:48.059Z,57.04
2023-01-18T10:22:48.039Z,55.43
2023-01-18T10:23:48.040Z,57.36
2023-01-18T10:24:48.220Z,59.14
2023-01-18T10:25:48.008Z,53.98
2023-01-18T10:26:48.052Z,54.62
2023-01-18T10:27:48.533Z,56.56
2023-01-18T10:28:47.987Z,55.75
2023-01-18T10:29:48.018Z,56.56
2023-01-18T10:30:48.023Z,57.69
2023-01-18T10:31:48.020Z,56.88
2023-01-18T10:32:47.968Z,55.59
2023-01-18T10:33:47.953Z,55.75
2023-01-18T10:34:47.980Z,57.04
2023-01-18T10:35:47.961Z,57.69
2023-01-18T10:36:48.010Z,55.75
2023-01-18T10:37:47.945Z,56.56
2023-01-18T10:38:47.961Z,56.72
2023-01-18T10:39:47.934Z,55.91
2023-01-18T10:40:47.913Z,55.75
2023-01-18T10:41:47.922Z,56.40
2023-01-18T10:42:47.949Z,56.56
2023-01-18T10:43:47.908Z,56.24
2023-01-18T10:44:47.899Z,56.07
2023-01-18T10:45:47.897Z,57.69
2023-01-18T10:46:47.891Z,57.20
2023-01-18T10:47:47.854Z,55.27
2023-01-18T10:48:48.388Z,57.04
2023-01-18T10:49:47.861Z,53.98
2023-01-18T10:50:47.863Z,56.07
2023-01-18T10:51:47.816Z,58.17
2023-01-18T10:52:47.825Z,55.75
2023-01-18T10:53:47.834Z,56.40
2023-01-18T10:54:47.866Z,57.20
2023-01-18T10:55:47.804Z,56.07
2023-01-18T10:56:47.898Z,55.75
2023-01-18T10:57:47.818Z,54.14
2023-01-18T10:58:47.779Z,50.92
2023-01-18T10:59:47.775Z,53.82
2023-01-18T11:00:49.960Z,56.24
2023-01-18T11:01:47.894Z,58.49
2023-01-18T11:02:47.785Z,58.81
2023-01-18T11:03:47.753Z,57.20
2023-01-18T11:04:47.740Z,56.40
2023-01-18T11:05:47.765Z,56.56
2023-01-18T11:06:47.749Z,54.95
2023-01-18T11:07:47.730Z,55.43
2023-01-18T11:08:47.722Z,55.75
2023-01-18T11:09:47.730Z,54.30
2023-01-18T11:10:47.700Z,54.30
2023-01-18T11:11:47.718Z,55.91
2023-01-18T11:12:47.769Z,58.01
2023-01-18T11:13:47.701Z,56.24
2023-01-18T11:14:47.688Z,54.62
2023-01-18T11:15:47.709Z,54.95
2023-01-18T11:16:47.768Z,55.27
2023-01-18T11:17:47.651Z,53.33
2023-01-18T11:18:47.695Z,51.24
2023-01-18T11:19:47.637Z,56.40
2023-01-18T11:20:47.623Z,55.91
2023-01-18T11:21:48.564Z,56.07
2023-01-18T11:22:47.601Z,57.36
2023-01-18T11:23:47.622Z,58.33
2023-01-18T11:24:47.657Z,56.88
2023-01-18T11:25:47.602Z,56.40
2023-01-18T11:26:47.629Z,54.95
2023-01-18T11:27:47.599Z,53.98
2023-01-18T11:28:47.594Z,55.59
2023-01-18T11:29:47.549Z,56.56
2023-01-18T11:30:47.599Z,56.24
2023-01-18T11:31:47.658Z,56.40
2023-01-18T11:32:47.529Z,56.72
2023-01-18T11:33:47.530Z,57.04
2023-01-18T11:34:47.572Z,57.36
2023-01-18T11:35:47.521Z,57.52
2023-01-18T11:36:47.564Z,57.69
2023-01-18T11:37:47.535Z,56.24
2023-01-18T11:38:47.512Z,57.04
2023-01-18T11:39:48.614Z,59.78
2023-01-18T11:40:47.523Z,58.97
2023-01-18T11:41:47.473Z,56.88
2023-01-18T11:42:47.593Z,57.20
2023-01-18T11:43:47.484Z,55.43
2023-01-18T11:44:47.458Z,56.56
2023-01-18T11:45:47.519Z,55.11
2023-01-18T11:46:47.466Z,54.62
2023-01-18T11:47:47.446Z,55.11
2023-01-18T11:48:47.493Z,55.27
2023-01-18T11:49:47.408Z,55.75
2023-01-18T11:50:47.450Z,53.17
2023-01-18T11:51:47.418Z,53.50
2023-01-18T11:52:47.376Z,57.20
2023-01-18T11:53:47.419Z,55.59
2023-01-18T11:54:48.637Z,55.27
2023-01-18T11:55:47.375Z,56.56
2023-01-18T11:56:47.410Z,56.24
2023-01-18T11:57:47.361Z,54.14
2023-01-18T11:58:47.357Z,53.50
2023-01-18T11:59:47.349Z,53.98
2023-01-18T12:00:47.415Z,52.69
2023-01-18T12:01:47.364Z,53.01
2023-01-18T12:02:47.330Z,54.46
2023-01-18T12:03:47.501Z,53.82
2023-01-18T12:04:47.324Z,55.43
2023-01-18T12:05:47.300Z,54.30
2023-01-18T12:06:47.353Z,55.11
2023-01-18T12:07:47.273Z,55.11
2023-01-18T12:08:47.278Z,56.88
2023-01-18T12:09:47.280Z,56.88
2023-01-18T12:10:47.281Z,56.24
2023-01-18T12:11:47.262Z,56.07
2023-01-18T12:12:47.351Z,55.59
2023-01-18T12:13:47.288Z,56.24
2023-01-18T12:14:47.229Z,54.95
2023-01-18T12:15:47.272Z,54.46
2023-01-18T12:16:47.310Z,54.62
2023-01-18T12:17:47.231Z,54.62
2023-01-18T12:18:47.292Z,52.85
2023-01-18T12:19:47.207Z,54.62
2023-01-18T12:20:47.219Z,54.95
2023-01-18T12:21:47.232Z,54.95
2023-01-18T12:22:47.183Z,55.75
2023-01-18T12:23:47.242Z,55.59
2023-01-18T12:24:47.327Z,53.50
2023-01-18T12:25:47.255Z,53.82
2023-01-18T12:26:47.198Z,55.27
2023-01-18T12:27:47.169Z,54.46
2023-01-18T12:28:47.166Z,53.98
2023-01-18T12:29:47.129Z,56.07
2023-01-18T12:30:47.283Z,54.62
2023-01-18T12:31:47.154Z,55.91
2023-01-18T12:32:48.504Z,55.27
2023-01-18T12:33:47.157Z,54.46
2023-01-18T12:34:47.170Z,57.52
2023-01-18T12:35:47.126Z,55.59
2023-01-18T12:36:47.210Z,54.95
2023-01-18T12:37:47.126Z,54.95
2023-01-18T12:38:47.123Z,56.88
2023-01-18T12:39:47.158Z,55.91
2023-01-18T12:40:47.090Z,54.95
2023-01-18T12:41:47.090Z,55.11
2023-01-18T12:42:47.151Z,55.43
2023-01-18T12:43:47.040Z,55.59
2023-01-18T12:44:47.099Z,54.79
2023-01-18T12:45:47.088Z,54.14
2023-01-18T12:46:47.006Z,53.82
2023-01-18T12:47:46.989Z,55.11
2023-01-18T12:48:47.103Z,53.82
2023-01-18T12:49:47.036Z,56.24
2023-01-18T12:50:47.078Z,56.56
2023-01-18T12:51:46.973Z,57.20
2023-01-18T12:52:46.983Z,55.59